Time;durP1;ratioP1;P1;durP2;ratioP2;P2;SDS_P1;SDS_P2;PMS_P1;PMS_P2;Temp;Humidity;BMP_temperature;BMP_pressure;BME280_temperature;BME280_humidity;BME280_pressure;Samples;Min_cycle;Max_cycle;Signal;HPM_P1;HPM_P2
2022/01/23 00:00:34;;;;;;;21.98;11.77;;;;;;;5.78;100.00;103393.19;5092026;28;20475;-57
2022/01/23 00:03:02;;;;;;;21.30;13.45;;;;;;;6.08;100.00;103459.41;5091604;28;20040;-57
2022/01/23 00:05:34;;;;;;;14.93;12.18;;;;;;;6.09;100.00;103445.50;5090613;28;20050;-58
2022/01/23 00:08:00;;;;;;;23.33;13.05;;;;;;;6.11;100.00;103455.16;5091018;28;20105;-57
2022/01/23 00:10:26;;;;;;;21.70;13.00;;;;;;;5.67;100.00;103362.41;5090493;28;20031;-57
2022/01/23 00:12:56;;;;;;;20.15;12.57;;;;;;;6.09;100.00;103440.28;5091253;28;20461;-56
2022/01/23 00:18:05;;;;;;;19.85;11.98;;;;;;;6.10;100.00;103440.28;5091914;28;20046;-58
2022/01/23 00:20:31;;;;;;;18.38;11.55;;;;;;;6.01;100.00;103423.50;5091031;28;20032;-59
2022/01/23 00:23:00;;;;;;;19.63;11.68;;;;;;;5.67;100.00;103361.50;5092056;28;20104;-59
2022/01/23 00:30:57;;;;;;;18.88;12.38;;;;;;;6.03;100.00;103432.25;5091921;28;20063;-56
2022/01/23 00:33:23;;;;;;;18.15;12.43;;;;;;;6.05;100.00;103428.84;5074421;28;20039;-56
2022/01/23 00:35:49;;;;;;;20.45;13.55;;;;;;;6.04;100.00;103447.13;5092164;28;20463;-57
2022/01/23 00:38:15;;;;;;;21.83;12.52;;;;;;;6.00;100.00;103429.56;5090214;28;20032;-57
2022/01/23 00:40:42;;;;;;;20.80;13.45;;;;;;;5.92;100.00;103415.41;5090366;28;20390;-57
2022/01/23 00:43:16;;;;;;;21.02;12.63;;;;;;;5.89;100.00;103410.97;5090563;28;20488;-56
2022/01/23 00:45:49;;;;;;;19.23;11.65;;;;;;;6.04;100.00;103437.50;5090681;28;20081;-57
2022/01/23 00:48:16;;;;;;;17.73;12.00;;;;;;;6.02;100.00;103423.53;5091473;28;20031;-56
2022/01/23 00:50:43;;;;;;;20.13;12.38;;;;;;;5.74;100.00;103365.19;5091869;28;20064;-58
2022/01/23 00:53:10;;;;;;;18.20;11.80;;;;;;;5.58;100.00;103336.00;5091669;28;20423;-58
2022/01/23 00:55:41;;;;;;;19.77;12.30;;;;;;;6.06;100.00;103417.53;5090659;28;20023;-55
2022/01/23 00:58:07;;;;;;;19.00;11.05;;;;;;;6.06;100.00;103421.88;5091523;28;20103;-56
2022/01/23 01:00:33;;;;;;;22.10;11.93;;;;;;;6.05;100.00;103413.16;5092014;28;20032;-56
2022/01/23 01:02:58;;;;;;;18.80;12.25;;;;;;;5.61;100.00;103348.28;5094204;28;20047;-55
2022/01/23 01:05:27;;;;;;;19.08;13.23;;;;;;;6.02;100.00;103427.84;5095366;28;20063;-56
2022/01/23 01:07:58;;;;;;;20.65;13.05;;;;;;;5.70;100.00;103366.81;5095249;28;20032;-56
2022/01/23 01:10:32;;;;;;;18.25;12.55;;;;;;;6.03;100.00;103422.69;5095562;28;20085;-55
2022/01/23 01:13:00;;;;;;;19.23;11.88;;;;;;;6.02;100.00;103406.94;5094080;28;20024;-57
2022/01/23 01:31:28;;;;;;;21.23;12.18;;;;;;;5.66;100.00;103371.06;5094862;28;20521;-55
2022/01/23 01:34:04;;;;;;;23.98;13.32;;;;;;;6.02;100.00;103440.94;5094828;28;20081;-57
2022/01/23 01:36:45;;;;;;;18.15;12.90;;;;;;;5.77;100.00;103394.91;5094737;28;20496;-57
2022/01/23 01:39:11;;;;;;;23.00;13.40;;;;;;;6.03;100.00;103434.88;5094941;28;20040;-59
2022/01/23 01:41:38;;;;;;;17.75;12.85;;;;;;;6.04;100.00;103439.28;5094840;28;20032;-57
2022/01/23 01:44:04;;;;;;;20.48;13.18;;;;;;;5.99;100.00;103435.63;5094629;28;20471;-56
2022/01/23 01:46:29;;;;;;;20.60;13.48;;;;;;;6.00;100.00;103424.31;5076371;28;20035;-57
2022/01/23 01:48:55;;;;;;;19.73;13.35;;;;;;;6.03;100.00;103453.19;5094446;28;20024;-55
2022/01/23 01:51:21;;;;;;;14.43;12.18;;;;;;;6.03;100.00;103438.38;5092902;28;20092;-57
2022/01/23 01:53:51;;;;;;;16.83;12.18;;;;;;;5.99;100.00;103452.19;5094345;28;20041;-55
2022/01/23 01:56:17;;;;;;;18.60;12.25;;;;;;;5.60;100.00;103377.88;5094460;28;20058;-56
2022/01/23 02:02:43;;;;;;;17.13;11.90;;;;;;;5.90;100.00;103419.66;5094404;28;20114;-57
2022/01/23 02:09:33;;;;;;;17.73;11.48;;;;;;;5.66;100.00;103385.91;5093321;28;20127;-57
2022/01/23 02:22:52;;;;;;;23.45;11.43;;;;;;;5.99;100.00;103438.22;5093895;28;20446;-56
2022/01/23 02:25:41;;;;;;;15.10;11.10;;;;;;;6.00;100.00;103440.91;5093533;28;20077;-58
2022/01/23 02:55:14;;;;;;;16.30;12.05;;;;;;;5.98;100.00;103419.03;5093246;28;20036;-57
2022/01/23 03:00:15;;;;;;;22.15;12.32;;;;;;;5.99;100.00;103412.09;5093154;28;20032;-55
2022/01/23 03:02:45;;;;;;;18.45;12.98;;;;;;;5.99;100.00;103404.25;5092065;28;20051;-56
2022/01/23 03:05:24;;;;;;;18.58;12.80;;;;;;;6.01;100.00;103407.81;5092105;28;20040;-57
2022/01/23 03:08:16;;;;;;;21.85;12.18;;;;;;;5.92;100.00;103394.47;5090950;28;20489;-56
2022/01/23 03:10:47;;;;;;;22.38;12.30;;;;;;;5.56;100.00;103316.81;5091549;28;20495;-58
2022/01/23 03:14:00;;;;;;;27.20;13.52;;;;;;;5.99;100.00;103393.78;5090910;28;20032;-57
2022/01/23 03:26:52;;;;;;;26.15;13.63;;;;;;;6.00;100.00;103401.69;5091614;28;20164;-56
2022/01/23 03:29:21;;;;;;;18.90;12.60;;;;;;;6.01;100.00;103416.50;5092463;28;20043;-57
2022/01/23 03:34:20;;;;;;;18.17;13.10;;;;;;;6.00;100.00;103409.53;5092694;28;20039;-54
2022/01/23 03:36:46;;;;;;;22.77;13.40;;;;;;;5.92;100.00;103399.72;5091542;28;20032;-56
2022/01/23 03:39:11;;;;;;;22.42;13.48;;;;;;;5.92;100.00;103394.47;5092370;28;20043;-56
2022/01/23 03:41:40;;;;;;;17.70;13.13;;;;;;;5.60;100.00;103355.22;5092395;28;20046;-57
2022/01/23 03:44:09;;;;;;;24.60;12.82;;;;;;;5.90;100.00;103404.88;5092290;28;20036;-57
2022/01/23 03:49:31;;;;;;;21.77;13.20;;;;;;;6.02;100.00;103410.44;5092587;28;20058;-58
2022/01/23 03:51:58;;;;;;;21.15;13.85;;;;;;;6.02;100.00;103415.69;5091091;28;20078;-58
2022/01/23 03:54:24;;;;;;;18.88;13.40;;;;;;;6.03;100.00;103411.34;5092168;28;20070;-55
2022/01/23 03:56:50;;;;;;;22.40;14.48;;;;;;;6.03;100.00;103424.41;5092212;28;20117;-57
2022/01/23 03:59:15;;;;;;;19.33;14.18;;;;;;;6.01;100.00;103424.34;5090619;28;20052;-57
2022/01/23 04:01:41;;;;;;;22.65;14.30;;;;;;;5.99;100.00;103418.22;5090957;28;20039;-56
2022/01/23 04:04:18;;;;;;;19.45;14.52;;;;;;;5.68;100.00;103360.69;5092034;28;20028;-56
2022/01/23 04:06:44;;;;;;;18.67;13.85;;;;;;;5.83;100.00;103388.97;5091991;28;20058;-57
2022/01/23 04:09:09;;;;;;;24.08;15.18;;;;;;;5.57;100.00;103343.84;5092046;28;20477;-56
2022/01/23 04:11:35;;;;;;;25.55;14.40;;;;;;;5.98;100.00;103426.88;5090503;28;20044;-56
2022/01/23 04:14:06;;;;;;;20.83;14.32;;;;;;;5.80;100.00;103396.72;5084592;28;20044;-57
2022/01/23 04:16:47;;;;;;;;;;;;;;;5.95;100.00;103415.47;5112373;28;20038;-57
2022/01/23 04:19:32;;;;;;;20.45;13.07;;;;;;;5.95;100.00;103424.22;5105361;28;20024;-56
2022/01/23 04:47:06;;;;;;;20.52;15.10;;;;;;;5.96;100.00;103439.03;5095575;28;20642;-57
2022/01/23 04:59:33;;;;;;;23.95;14.88;;;;;;;5.90;100.00;103432.75;5095005;28;20040;-57
2022/01/23 05:00:10;;;;;;;22.60;14.68;;;;;;;5.92;100.00;103438.94;5102900;28;20123;-56
2022/01/23 05:05:08;;;;;;;21.88;14.98;;;;;;;5.50;100.00;103365.38;5107519;28;20513;-57
2022/01/23 05:07:34;;;;;;;31.23;16.35;;;;;;;5.88;100.00;103450.13;5110730;28;20402;-56
2022/01/23 05:09:59;;;;;;;25.02;15.45;;;;;;;5.89;100.00;103439.72;5113897;28;20034;-56
2022/01/23 05:12:29;;;;;;;21.35;14.63;;;;;;;5.89;100.00;103437.13;5099039;28;20036;-56
2022/01/23 05:14:55;;;;;;;25.73;15.80;;;;;;;5.89;100.00;103442.34;5101701;28;20055;-58
2022/01/23 05:17:20;;;;;;;28.17;15.40;;;;;;;5.89;100.00;103436.22;5115384;28;20420;-58
2022/01/23 05:19:46;;;;;;;26.73;15.27;;;;;;;5.88;100.00;103430.09;5097132;28;20128;-57
2022/01/23 05:22:24;;;;;;;21.50;15.00;;;;;;;5.91;100.00;103444.97;5097199;28;20039;-57
2022/01/23 05:25:10;;;;;;;24.92;16.60;;;;;;;5.89;100.00;103434.50;5103129;28;20117;-57
2022/01/23 05:27:35;;;;;;;21.88;14.23;;;;;;;5.87;100.00;103433.56;5093780;28;20390;-56
2022/01/23 05:30:01;;;;;;;25.75;15.38;;;;;;;5.86;100.00;103436.13;5094721;28;20047;-56
2022/01/23 05:32:30;;;;;;;26.20;16.67;;;;;;;5.83;100.00;103431.69;5106506;28;20510;-56
2022/01/23 05:34:56;;;;;;;22.80;14.98;;;;;;;5.84;100.00;103437.81;5114987;28;20024;-56
2022/01/23 05:37:21;;;;;;;21.45;15.35;;;;;;;5.83;100.00;103425.56;5115096;28;20119;-56
2022/01/23 05:39:47;;;;;;;22.42;15.38;;;;;;;5.83;100.00;103436.91;5113933;28;20027;-55
2022/01/23 05:42:12;;;;;;;25.83;15.55;;;;;;;5.87;100.00;103436.16;5113761;28;20406;-56
2022/01/23 05:44:40;;;;;;;24.40;15.43;;;;;;;5.36;100.00;103346.72;5114994;28;20024;-57
2022/01/23 05:47:07;;;;;;;27.50;16.35;;;;;;;5.88;100.00;103432.72;5103490;28;20491;-60
2022/01/23 05:49:33;;;;;;;28.27;16.80;;;;;;;5.40;100.00;103347.69;5094601;28;20502;-56
2022/01/23 05:51:59;;;;;;;23.83;15.98;;;;;;;5.89;100.00;103428.38;5094389;28;20110;-57
2022/01/23 05:54:25;;;;;;;25.58;15.63;;;;;;;5.88;100.00;103431.81;5093322;28;20069;-58
2022/01/23 05:56:50;;;;;;;23.33;14.75;;;;;;;5.87;100.00;103428.31;5094093;28;20490;-56
2022/01/23 05:59:16;;;;;;;24.05;16.05;;;;;;;5.69;100.00;103406.88;5093615;28;20048;-57
2022/01/23 06:01:43;;;;;;;24.73;16.23;;;;;;;5.84;100.00;103427.34;5080064;28;20118;-56
2022/01/23 06:04:08;;;;;;;21.95;15.00;;;;;;;5.66;100.00;103394.59;5114547;28;20080;-56
2022/01/23 06:06:34;;;;;;;25.90;16.70;;;;;;;5.84;100.00;103424.72;5114693;28;20120;-56
2022/01/23 06:08:59;;;;;;;28.50;16.95;;;;;;;5.72;100.00;103413.94;5114345;28;20042;-56
2022/01/23 06:11:24;;;;;;;24.10;17.20;;;;;;;5.73;100.00;103406.13;5114419;28;20099;-57
2022/01/23 06:13:50;;;;;;;22.13;15.52;;;;;;;5.82;100.00;103419.44;5113152;28;20482;-56
2022/01/23 06:16:15;;;;;;;20.15;15.57;;;;;;;5.39;100.00;103352.03;5113895;28;20055;-56
2022/01/23 06:18:43;;;;;;;23.80;15.40;;;;;;;5.81;100.00;103422.03;5111308;28;20097;-54
2022/01/23 06:21:09;;;;;;;26.20;14.68;;;;;;;5.80;100.00;103431.59;5093857;28;20115;-60
2022/01/23 06:23:34;;;;;;;28.25;17.45;;;;;;;5.63;100.00;103384.06;5093959;28;20106;-56
2022/01/23 06:26:00;;;;;;;29.20;16.90;;;;;;;5.84;100.00;103412.53;5093848;28;20119;-57
2022/01/23 06:29:06;;;;;;;30.38;17.00;;;;;;;5.84;100.00;103422.13;5093737;28;20471;-59
2022/01/23 06:31:32;;;;;;;21.95;15.80;;;;;;;5.82;100.00;103434.22;5076131;28;20096;-56
2022/01/23 06:33:59;;;;;;;22.92;16.48;;;;;;;5.77;100.00;103428.88;5095718;28;20521;-56
2022/01/23 06:36:25;;;;;;;23.10;16.13;;;;;;;5.46;100.00;103373.97;5112268;28;20032;-57
2022/01/23 06:38:50;;;;;;;29.42;19.05;;;;;;;5.48;100.00;103382.75;5112489;28;20058;-57
2022/01/23 06:41:16;;;;;;;33.75;20.20;;;;;;;5.61;100.00;103392.69;5113423;28;20058;-57
2022/01/23 06:43:41;;;;;;;29.05;18.65;;;;;;;5.44;100.00;103373.94;5113920;28;20379;-57
2022/01/23 06:46:06;;;;;;;27.65;19.98;;;;;;;5.45;100.00;103378.34;5095755;28;20027;-57
2022/01/23 06:48:31;;;;;;;32.50;20.20;;;;;;;5.41;100.00;103372.94;5114044;27;20027;-55
2022/01/23 06:50:57;;;;;;;32.45;20.70;;;;;;;5.37;100.00;103373.72;5113065;28;20032;-58
2022/01/23 06:53:22;;;;;;;32.83;20.70;;;;;;;5.78;100.00;103446.31;5113669;28;20032;-58
2022/01/23 06:55:48;;;;;;;32.85;20.40;;;;;;;5.48;100.00;103407.16;5105360;28;20024;-56
2022/01/23 06:58:13;;;;;;;31.75;20.58;;;;;;;5.78;100.00;103450.69;5091833;28;20129;-57
2022/01/23 07:00:38;;;;;;;33.60;20.15;;;;;;;5.57;100.00;103430.03;5093085;28;20068;-58
2022/01/23 07:03:04;;;;;;;35.65;19.83;;;;;;;5.69;100.00;103436.50;5093041;28;20028;-56
2022/01/23 07:05:29;;;;;;;32.45;20.38;;;;;;;5.79;100.00;103452.44;5093077;28;20040;-56
2022/01/23 07:07:54;;;;;;;30.95;19.27;;;;;;;5.78;100.00;103456.78;5092829;28;20044;-57
2022/01/23 07:10:21;;;;;;;26.98;18.02;;;;;;;5.78;100.00;103458.53;5092710;28;20040;-57
2022/01/23 07:12:47;;;;;;;31.20;19.13;;;;;;;5.74;100.00;103449.72;5094057;28;20032;-57
2022/01/23 07:15:12;;;;;;;32.13;19.33;;;;;;;5.82;100.00;103465.59;5108608;28;20376;-56
2022/01/23 07:17:39;;;;;;;27.13;19.10;;;;;;;5.78;100.00;103459.38;5112727;28;20115;-57
2022/01/23 07:20:05;;;;;;;26.45;19.73;;;;;;;5.78;100.00;103455.91;5111812;28;20036;-57
2022/01/23 07:22:30;;;;;;;32.75;20.00;;;;;;;5.77;100.00;103467.19;5112694;27;20036;-56
2022/01/23 07:25:00;;;;;;;31.85;20.83;;;;;;;5.66;100.00;103456.44;5112733;28;20031;-56
2022/01/23 07:27:28;;;;;;;30.08;20.50;;;;;;;5.66;100.00;103451.22;5112910;28;20031;-56
2022/01/23 07:29:54;;;;;;;32.83;21.33;;;;;;;5.73;100.00;103462.72;5102499;28;20038;-57
2022/01/23 07:32:19;;;;;;;30.17;20.85;;;;;;;5.60;100.00;103449.28;5107913;28;20111;-57
2022/01/23 07:34:45;;;;;;;32.38;20.55;;;;;;;5.63;100.00;103459.81;5112585;28;20032;-57
2022/01/23 07:37:12;;;;;;;33.63;20.83;;;;;;;5.73;100.00;103481.91;5111250;28;20043;-57
2022/01/23 07:39:38;;;;;;;30.42;19.83;;;;;;;5.63;100.00;103464.19;5112499;28;20033;-57
2022/01/23 07:42:04;;;;;;;32.35;18.83;;;;;;;5.62;100.00;103473.75;5112589;28;20392;-57
2022/01/23 07:44:29;;;;;;;32.58;20.67;;;;;;;5.74;100.00;103493.25;5112205;28;20371;-55
2022/01/23 07:46:54;;;;;;;31.88;20.45;;;;;;;5.19;100.00;103404.50;5112510;28;20073;-57
2022/01/23 07:49:20;;;;;;;33.42;21.85;;;;;;;5.70;100.00;103494.88;5112713;28;20036;-57
2022/01/23 07:51:45;;;;;;;27.95;19.88;;;;;;;5.31;100.00;103415.34;5112783;28;20092;-57
2022/01/23 07:54:11;;;;;;;39.40;21.60;;;;;;;5.75;100.00;103501.13;5111364;28;20027;-56
2022/01/23 07:56:38;;;;;;;31.27;20.75;;;;;;;5.62;100.00;103486.81;5112408;28;20575;-55
2022/01/23 07:59:04;;;;;;;33.70;22.38;;;;;;;5.75;100.00;103515.94;5108994;28;20100;-56
2022/01/23 08:01:31;;;;;;;32.47;21.38;;;;;;;5.60;100.00;103469.31;5112399;28;20122;-56
2022/01/23 08:03:56;;;;;;;32.67;21.08;;;;;;;5.76;100.00;103508.13;5110097;28;20458;-57
2022/01/23 08:06:28;;;;;;;33.17;21.45;;;;;;;5.73;100.00;103501.91;5110656;28;20038;-58
2022/01/23 08:08:55;;;;;;;35.53;21.90;;;;;;;5.77;100.00;103509.91;5110800;28;20054;-56
2022/01/23 08:11:22;;;;;;;32.70;21.88;;;;;;;5.77;100.00;103503.78;5110938;28;20260;-55
2022/01/23 08:13:47;;;;;;;33.03;23.20;;;;;;;5.77;100.00;103522.09;5104856;28;20043;-58
2022/01/23 08:16:13;;;;;;;41.58;23.98;;;;;;;5.47;100.00;103451.50;5092028;28;20036;-56
2022/01/23 08:18:38;;;;;;;40.30;25.52;;;;;;;5.33;100.00;103424.09;5090686;28;20035;-58
2022/01/23 08:21:03;;;;;;;34.25;24.00;;;;;;;5.86;100.00;103512.84;5090322;28;20036;-58
2022/01/23 08:23:29;;;;;;;39.67;23.58;;;;;;;5.45;100.00;103435.81;5092370;28;20032;-56
2022/01/23 08:25:54;;;;;;;40.60;24.70;;;;;;;5.54;100.00;103449.13;5102470;28;20407;-55
2022/01/23 08:28:20;;;;;;;37.25;24.90;;;;;;;5.83;100.00;103498.75;5100389;28;20036;-56
2022/01/23 08:30:45;;;;;;;42.47;25.67;;;;;;;5.94;100.00;103519.16;5091499;28;20407;-57
2022/01/23 08:33:11;;;;;;;38.47;25.65;;;;;;;5.97;100.00;103529.72;5090212;28;20040;-57
2022/01/23 08:35:36;;;;;;;35.55;24.35;;;;;;;6.00;100.00;103535.03;5090929;28;20119;-58
2022/01/23 08:38:02;;;;;;;38.15;26.77;;;;;;;5.98;100.00;103525.38;5089877;28;20036;-56
2022/01/23 08:43:08;;;;;;;34.90;24.73;;;;;;;6.08;100.00;103528.28;5091694;28;20036;-55
2022/01/23 08:45:33;;;;;;;42.90;26.83;;;;;;;6.11;100.00;103527.47;5091529;28;20119;-56
2022/01/23 08:47:59;;;;;;;40.53;26.17;;;;;;;5.66;100.00;103428.56;5091455;28;20097;-56
2022/01/23 08:50:25;;;;;;;39.60;26.63;;;;;;;6.15;100.00;103519.78;5091550;28;20025;-54
2022/01/23 08:52:51;;;;;;;44.35;27.88;;;;;;;6.18;100.00;103516.38;5091610;28;20040;-56
2022/01/23 08:55:17;;;;;;;41.53;26.85;;;;;;;6.19;100.00;103513.78;5091798;28;20108;-55
2022/01/23 08:57:43;;;;;;;37.08;27.00;;;;;;;5.83;100.00;103447.38;5091283;28;20043;-56
2022/01/23 09:00:09;;;;;;;37.65;25.02;;;;;;;5.88;100.00;103444.91;5090073;28;20043;-57
2022/01/23 09:02:34;;;;;;;38.17;27.83;;;;;;;6.32;100.00;103517.63;5091332;28;20051;-55
2022/01/23 09:05:00;;;;;;;38.92;27.05;;;;;;;6.36;100.00;103521.22;5091473;28;20398;-54
2022/01/23 09:07:25;;;;;;;40.65;27.23;;;;;;;6.31;100.00;103505.38;5090441;28;20386;-55
2022/01/23 09:09:51;;;;;;;39.28;25.70;;;;;;;6.05;100.00;103443.63;5091689;28;20040;-57
2022/01/23 09:15:14;;;;;;;37.17;27.13;;;;;;;6.13;100.00;103447.34;5067898;28;20044;-56
2022/01/23 09:17:39;;;;;;;39.97;26.00;;;;;;;6.53;100.00;103515.59;5091591;28;20097;-57
2022/01/23 09:20:05;;;;;;;38.83;26.38;;;;;;;6.63;100.00;103532.41;5090231;28;20032;-56
2022/01/23 09:22:31;;;;;;;32.17;25.65;;;;;;;6.65;100.00;103522.88;5093143;28;20442;-54
2022/01/23 09:24:58;;;;;;;35.80;27.00;;;;;;;6.30;100.00;103456.56;5094936;28;20048;-54
2022/01/23 09:27:24;;;;;;;37.05;26.92;;;;;;;6.41;100.00;103476.03;5094665;28;20463;-58
2022/01/23 09:29:50;;;;;;;41.88;27.98;;;;;;;6.81;100.00;103546.00;5094635;28;20068;-59
2022/01/23 09:32:17;;;;;;;39.10;26.98;;;;;;;6.56;100.00;103484.28;5094814;28;20038;-56
2022/01/23 09:34:43;;;;;;;42.53;27.70;;;;;;;6.89;100.00;103536.59;5094744;28;20028;-57
2022/01/23 09:37:11;;;;;;;39.78;27.52;;;;;;;6.54;100.00;103466.75;5094585;28;20115;-57
2022/01/23 09:39:38;;;;;;;37.28;27.60;;;;;;;6.96;100.00;103542.88;5094429;28;20413;-57
2022/01/23 09:42:16;;;;;;;37.83;27.17;;;;;;;6.94;100.00;103532.38;5094521;28;20039;-56
2022/01/23 09:44:46;;;;;;;33.67;26.90;;;;;;;7.08;100.00;103558.91;5094611;28;20068;-56
2022/01/23 09:47:13;;;;;;;38.30;26.17;;;;;;;7.10;100.00;103557.19;5094366;28;20409;-59
2022/01/23 09:49:39;;;;;;;38.22;25.95;;;;;;;6.86;100.00;103504.22;5093329;28;20036;-57
2022/01/23 09:52:07;;;;;;;32.38;27.33;;;;;;;6.95;100.00;103544.59;5093074;28;20040;-57
2022/01/23 09:54:33;;;;;;;32.65;24.77;;;;;;;6.79;100.00;103492.72;5093051;28;20055;-56
2022/01/23 09:57:01;;;;;;;33.55;25.60;;;;;;;7.17;100.00;103546.94;5092999;28;20148;-57
2022/01/23 09:59:27;;;;;;;35.33;25.88;;;;;;;7.29;100.00;103551.59;5093056;28;20071;-56
2022/01/23 10:01:56;;;;;;;37.75;25.83;;;;;;;7.22;100.00;103526.06;5092991;28;20463;-56
2022/01/23 10:04:21;;;;;;;28.73;22.98;;;;;;;7.17;100.00;103527.69;5094067;28;20032;-56
2022/01/23 10:06:47;;;;;;;32.05;24.08;;;;;;;7.39;100.00;103558.78;5094082;28;20489;-58
2022/01/23 10:09:14;;;;;;;30.75;22.88;;;;;;;6.95;100.00;103473.00;5094083;28;20043;-57
2022/01/23 10:11:42;;;;;;;30.17;22.73;;;;;;;7.51;100.00;103560.81;5092881;28;20466;-57
2022/01/23 10:14:07;;;;;;;29.00;22.65;;;;;;;7.55;100.00;103565.28;5093074;28;20043;-58
2022/01/23 10:16:33;;;;;;;29.15;22.63;;;;;;;7.55;100.00;103574.06;5094117;28;20036;-56
2022/01/23 10:19:00;;;;;;;33.72;23.35;;;;;;;7.56;100.00;103564.44;5093934;28;20028;-56
2022/01/23 10:21:26;;;;;;;30.48;21.40;;;;;;;7.59;100.00;103568.00;5075881;28;20036;-56
2022/01/23 10:23:53;;;;;;;28.23;21.55;;;;;;;7.61;100.00;103566.31;5093922;28;20527;-55
2022/01/23 10:26:45;;;;;;;28.42;20.83;;;;;;;7.76;100.00;103563.16;5093864;28;20028;-57
2022/01/23 10:29:36;;;;;;;29.60;21.30;;;;;;;7.77;100.00;103560.56;5093835;28;20078;-58
2022/01/23 10:32:18;;;;;;;26.73;19.50;;;;;;;7.78;100.00;103551.84;5092351;28;20028;-53
2022/01/23 10:34:48;;;;;;;26.13;20.90;;;;;;;7.85;100.00;103556.38;5093466;28;20418;-57
2022/01/23 10:37:26;;;;;;;24.55;20.60;;;;;;;7.74;100.00;103542.16;5092199;28;20024;-57
2022/01/23 10:39:51;;;;;;;25.73;20.10;;;;;;;7.88;100.00;103540.69;5093178;28;20039;-58
2022/01/23 10:48:35;;;;;;;25.38;18.30;;;;;;;8.20;100.00;103561.50;5092473;28;20237;-58
2022/01/23 10:51:18;;;;;;;26.38;18.60;;;;;;;7.81;100.00;103485.47;5092957;28;20035;-58
2022/01/23 10:54:16;;;;;;;22.73;18.23;;;;;;;8.26;100.00;103562.50;5094506;28;20024;-57
2022/01/23 10:57:01;;;;;;;20.80;18.20;;;;;;;8.34;100.00;103560.06;5109224;28;20106;-57
2022/01/23 10:59:56;;;;;;;24.60;18.15;;;;;;;8.38;100.00;103573.28;5111276;28;20414;-58
2022/01/23 11:02:24;;;;;;;21.10;16.20;;;;;;;8.35;100.00;103577.56;5091371;28;20485;-59
2022/01/23 11:04:54;;;;;;;19.63;16.60;;;;;;;8.06;100.00;103519.22;5093057;28;20032;-57
2022/01/23 11:07:21;;;;;;;18.60;16.05;;;;;;;8.30;100.00;103567.00;5092730;28;20097;-55
2022/01/23 11:09:46;;;;;;;19.08;15.27;;;;;;;8.35;100.00;103574.94;5074774;28;20043;-57
2022/01/23 11:17:52;;;;;;;19.20;14.93;;;;;;;8.28;100.00;103563.47;5091816;28;20427;-58
2022/01/23 11:20:31;;;;;;;17.92;16.02;;;;;;;8.08;100.00;103521.88;5090243;28;20036;-58
2022/01/23 11:23:20;;;;;;;20.90;15.63;;;;;;;8.25;100.00;103557.22;5093431;28;20032;-57
2022/01/23 11:26:07;;;;;;;20.85;16.65;;;;;;;8.29;100.00;103546.84;5092144;28;20065;-56
2022/01/23 11:28:40;;;;;;;22.10;17.42;;;;;;;8.32;100.00;103549.53;5081453;28;20429;-57
2022/01/23 11:31:09;;;;;;;23.70;16.63;;;;;;;8.08;100.00;103499.16;5090800;28;20032;-58
2022/01/23 11:33:34;;;;;;;20.88;17.15;;;;;;;8.38;100.00;103546.13;5091110;28;20044;-57
2022/01/23 11:36:01;;;;;;;23.40;17.67;;;;;;;8.36;100.00;103543.50;5091698;28;20055;-56
2022/01/23 11:38:27;;;;;;;20.02;16.48;;;;;;;8.41;100.00;103543.56;5087652;28;20040;-58
2022/01/23 11:54:43;;;;;;;18.05;13.70;;;;;;;8.46;100.00;103545.41;5072037;28;20075;-59
2022/01/23 11:57:37;;;;;;;18.60;14.20;;;;;;;8.49;100.00;103542.84;5072994;28;20028;-58
2022/01/23 12:00:27;;;;;;;18.35;15.20;;;;;;;8.53;100.00;103540.28;5079320;28;20450;-57
2022/01/23 12:03:12;;;;;;;20.65;15.80;;;;;;;8.57;100.00;103542.13;5077533;28;20455;-58
2022/01/23 12:05:41;;;;;;;17.17;14.25;;;;;;;8.64;100.00;103531.75;5071417;28;20017;-57
2022/01/23 12:08:18;;;;;;;17.52;15.25;;;;;;;8.62;100.00;103535.22;5071343;28;20017;-57
2022/01/23 12:13:57;;;;;;;15.88;14.15;;;;;;;8.64;100.00;103528.28;5071581;28;20043;-57
2022/01/23 12:16:59;;;;;;;16.55;14.80;;;;;;;8.61;100.00;103521.19;5070118;28;20364;-58
2022/01/23 12:19:26;;;;;;;17.50;14.80;;;;;;;8.60;100.00;103529.06;5071419;28;20518;-58
2022/01/23 12:21:53;;;;;;;15.60;13.65;;;;;;;8.43;100.00;103492.00;5071386;28;20032;-57
2022/01/23 12:24:22;;;;;;;19.27;14.70;;;;;;;8.62;100.00;103530.84;5070129;28;20037;-57
2022/01/23 12:26:49;;;;;;;16.90;14.45;;;;;;;8.62;100.00;103522.09;5069844;28;20470;-56
2022/01/23 12:29:18;;;;;;;16.98;14.23;;;;;;;8.41;100.00;103480.56;5070085;28;20075;-58
2022/01/23 12:31:45;;;;;;;13.73;11.73;;;;;;;8.51;100.00;103505.25;5071537;28;20032;-55
2022/01/23 12:34:11;;;;;;;15.57;12.48;;;;;;;8.26;100.00;103456.66;5070950;28;20095;-58
2022/01/23 12:36:38;;;;;;;19.02;14.13;;;;;;;8.62;100.00;103530.84;5071420;28;20052;-59
2022/01/23 12:39:06;;;;;;;18.65;15.63;;;;;;;8.68;100.00;103519.56;5071228;28;20028;-57
2022/01/23 12:41:33;;;;;;;20.02;16.35;;;;;;;8.64;100.00;103530.91;5069983;28;20039;-59
2022/01/23 12:44:04;;;;;;;17.20;15.50;;;;;;;8.70;100.00;103526.63;5070096;28;20025;-56
2022/01/23 12:46:30;;;;;;;;;;;;;;;8.68;100.00;103511.69;5071074;28;20032;-57
2022/01/23 12:48:56;;;;;;;16.25;14.20;;;;;;;8.29;100.00;103452.38;5087362;28;19916;-58
2022/01/23 12:51:22;;;;;;;18.75;15.95;;;;;;;8.74;100.00;103523.22;5089613;28;20032;-57
2022/01/23 12:53:47;;;;;;;17.85;15.48;;;;;;;8.73;100.00;103512.66;5088861;28;20566;-57
2022/01/23 12:56:18;;;;;;;18.92;16.02;;;;;;;8.77;100.00;103514.50;5091742;28;20585;-57
2022/01/23 12:58:59;;;;;;;18.73;16.08;;;;;;;8.49;100.00;103466.72;5093859;28;20044;-57
2022/01/23 13:01:27;;;;;;;19.15;16.75;;;;;;;8.71;100.00;103517.91;5093266;28;20483;-57
2022/01/23 13:03:54;;;;;;;21.13;18.23;;;;;;;8.59;100.00;103490.53;5092933;28;20057;-58
2022/01/23 13:07:02;;;;;;;28.98;20.38;;;;;;;8.65;100.00;103493.25;5092810;28;20401;-57
2022/01/23 13:12:27;;;;;;;19.85;16.50;;;;;;;8.69;100.00;103509.13;5093527;28;20033;-57
2022/01/23 13:18:03;;;;;;;16.70;13.13;;;;;;;8.59;100.00;103527.28;5093671;28;20038;-58
2022/01/23 13:32:16;;;;;;;18.85;14.88;;;;;;;8.45;100.00;103513.91;5095120;28;20050;-57
2022/01/23 13:34:57;;;;;;;16.88;15.18;;;;;;;8.47;100.00;103514.81;5093563;28;20059;-58
2022/01/23 13:37:28;;;;;;;17.60;15.48;;;;;;;8.46;100.00;103499.94;5094458;28;20024;-56
2022/01/23 13:40:01;;;;;;;17.75;15.75;;;;;;;8.05;100.00;103443.13;5094419;28;20028;-58
2022/01/23 13:42:47;;;;;;;16.10;14.50;;;;;;;7.93;100.00;103430.66;5093519;28;20032;-57
2022/01/23 13:59:32;;;;;;;14.85;13.35;;;;;;;7.93;100.00;103459.50;5094065;28;20058;-56
2022/01/23 14:02:18;;;;;;;14.50;12.93;;;;;;;7.91;100.00;103448.09;5094113;28;20028;-58
2022/01/23 14:04:47;;;;;;;16.75;13.20;;;;;;;8.14;100.00;103514.16;5076932;28;20016;-57
2022/01/23 14:07:20;;;;;;;15.48;13.75;;;;;;;8.02;100.00;103493.81;5093885;28;20050;-58
2022/01/23 14:09:46;;;;;;;14.45;13.05;;;;;;;8.09;100.00;103502.66;5092705;28;20042;-57
2022/01/23 14:12:14;;;;;;;15.00;13.40;;;;;;;8.11;100.00;103496.63;5092808;28;20032;-57
2022/01/23 14:14:52;;;;;;;13.93;12.52;;;;;;;8.14;100.00;103495.78;5092812;28;20054;-58
2022/01/23 14:17:18;;;;;;;14.43;12.10;;;;;;;8.12;100.00;103498.34;5093829;28;20055;-57
2022/01/23 14:20:19;;;;;;;16.33;14.65;;;;;;;8.11;100.00;103495.72;5075752;28;20527;-57
2022/01/23 14:22:47;;;;;;;13.48;12.18;;;;;;;8.09;100.00;103494.78;5030977;28;20029;-58
2022/01/23 14:25:12;;;;;;;14.30;12.90;;;;;;;8.12;100.00;103502.72;5082048;28;20047;-59
2022/01/23 14:27:39;;;;;;;16.60;14.65;;;;;;;7.80;100.00;103455.75;5093970;28;20032;-58
2022/01/23 14:30:08;;;;;;;16.80;15.00;;;;;;;7.88;100.00;103472.53;5093761;28;20028;-58